Time;durP1;ratioP1;P1;durP2;ratioP2;P2;SDS_P1;SDS_P2;PMS_P1;PMS_P2;Temp;Humidity;BMP_temperature;BMP_pressure;BME280_temperature;BME280_humidity;BME280_pressure;Samples;Min_cycle;Max_cycle;Signal;HPM_P1;HPM_P2
2022/01/19 00:02:17;;;;;;;36.33;7.90;;;;;;;;;;5000021;28;20049;-56
2022/01/19 00:04:43;;;;;;;47.00;10.20;;;;;;;;;;4998197;28;20034;-56
2022/01/19 00:07:08;;;;;;;35.22;10.50;;;;;;;;;;4999153;28;20044;-55
2022/01/19 00:09:34;;;;;;;50.00;11.13;;;;;;;;;;4997043;28;20510;-56
2022/01/19 00:11:59;;;;;;;40.30;10.60;;;;;;;;;;4999575;28;20050;-56
2022/01/19 00:14:26;;;;;;;36.03;10.65;;;;;;;;;;5000160;28;20041;-57
2022/01/19 00:16:52;;;;;;;39.42;9.45;;;;;;;;;;5004378;28;20084;-56
2022/01/19 00:19:17;;;;;;;35.75;9.15;;;;;;;;;;5003579;28;20037;-57
2022/01/19 00:21:43;;;;;;;38.45;10.95;;;;;;;;;;5004190;28;20036;-57
2022/01/19 00:24:08;;;;;;;43.28;9.40;;;;;;;;;;5001710;28;20025;-57
2022/01/19 00:26:34;;;;;;;37.95;9.88;;;;;;;;;;5003849;28;20106;-57
2022/01/19 00:29:00;;;;;;;40.58;8.25;;;;;;;;;;5004786;28;20049;-57
2022/01/19 00:31:25;;;;;;;41.72;8.35;;;;;;;;;;5002239;28;20432;-57
2022/01/19 00:33:51;;;;;;;33.55;6.95;;;;;;;;;;5004122;28;20045;-57
2022/01/19 00:36:16;;;;;;;45.25;10.90;;;;;;;;;;5002233;28;20513;-57
2022/01/19 00:38:42;;;;;;;50.92;10.07;;;;;;;;;;5004840;28;20034;-57
2022/01/19 00:41:07;;;;;;;40.85;10.68;;;;;;;;;;5002356;28;20080;-57
2022/01/19 00:43:36;;;;;;;47.33;10.25;;;;;;;;;;5004418;28;20032;-57
2022/01/19 00:46:02;;;;;;;32.67;9.40;;;;;;;;;;5008855;28;20030;-57
2022/01/19 00:48:30;;;;;;;50.60;10.43;;;;;;;;;;5000452;28;20073;-57
2022/01/19 00:50:57;;;;;;;41.67;10.20;;;;;;;;;;4998587;28;20477;-57
2022/01/19 00:53:23;;;;;;;38.47;9.80;;;;;;;;;;5001606;28;20265;-58
2022/01/19 00:55:49;;;;;;;44.05;9.48;;;;;;;;;;5000147;28;20668;-57
2022/01/19 00:58:14;;;;;;;44.10;9.73;;;;;;;;;;5002746;28;20026;-57
2022/01/19 01:00:40;;;;;;;58.17;10.10;;;;;;;;;;5002102;28;20034;-57
2022/01/19 01:03:05;;;;;;;34.53;11.18;;;;;;;;;;5003890;28;20442;-57
2022/01/19 01:05:32;;;;;;;36.50;8.63;;;;;;;;;;4996869;28;20056;-57
2022/01/19 01:07:58;;;;;;;40.75;8.25;;;;;;;;;;5002383;28;20036;-57
2022/01/19 01:10:23;;;;;;;41.22;11.18;;;;;;;;;;4999681;28;20058;-58
2022/01/19 01:12:51;;;;;;;49.15;9.98;;;;;;;;;;5004105;28;20049;-57
2022/01/19 01:18:22;;;;;;;41.35;9.25;;;;;;;;;;4961927;28;20069;-57
2022/01/19 01:20:50;;;;;;;52.40;10.43;;;;;;;;;;4981852;28;20050;-56
2022/01/19 01:23:18;;;;;;;40.80;9.90;;;;;;;;;;5000105;28;20120;-55
2022/01/19 01:25:44;;;;;;;52.58;8.65;;;;;;;;;;5003125;28;20025;-56
2022/01/19 01:28:10;;;;;;;31.88;8.32;;;;;;;;;;4999462;28;20092;-57
2022/01/19 01:30:37;;;;;;;32.65;8.55;;;;;;;;;;5003165;28;20103;-56
2022/01/19 01:33:03;;;;;;;37.00;9.85;;;;;;;;;;5004648;28;20114;-56
2022/01/19 01:35:28;;;;;;;62.58;10.02;;;;;;;;;;5002388;28;20113;-57
2022/01/19 01:37:54;;;;;;;57.60;10.10;;;;;;;;;;5000040;28;20036;-57
2022/01/19 01:40:22;;;;;;;53.92;10.05;;;;;;;;;;5000894;28;20372;-57
2022/01/19 01:42:47;;;;;;;31.33;8.88;;;;;;;;;;5000782;28;20071;-57
2022/01/19 01:45:14;;;;;;;41.28;8.25;;;;;;;;;;5003254;28;20062;-57
2022/01/19 01:47:45;;;;;;;35.38;8.68;;;;;;;;;;5003805;28;20030;-57
2022/01/19 01:55:24;;;;;;;33.90;9.27;;;;;;;;;;4999906;28;20556;-57
2022/01/19 01:57:50;;;;;;;37.38;8.77;;;;;;;;;;5002185;28;20123;-57
2022/01/19 02:00:19;;;;;;;43.65;7.43;;;;;;;;;;5005423;28;20037;-57
2022/01/19 02:02:46;;;;;;;68.05;9.32;;;;;;;;;;5002567;28;20026;-57
2022/01/19 02:05:13;;;;;;;55.35;8.82;;;;;;;;;;5000882;28;20045;-57
2022/01/19 02:08:10;;;;;;;51.92;7.90;;;;;;;;;;5001052;28;20080;-56
2022/01/19 02:16:12;;;;;;;30.20;6.13;;;;;;;;;;4957027;28;20046;-55
2022/01/19 02:24:08;;;;;;;31.23;6.85;;;;;;;;;;4999113;28;20084;-57
2022/01/19 02:26:51;;;;;;;44.47;7.80;;;;;;;;;;4999868;28;20042;-57
2022/01/19 02:42:37;;;;;;;36.72;7.75;;;;;;;;;;5004087;28;20237;-57
2022/01/19 02:49:58;;;;;;;29.08;5.03;;;;;;;;;;5003587;28;20022;-57
2022/01/19 02:52:25;;;;;;;23.48;4.30;;;;;;;;;;4997385;28;20044;-57
2022/01/19 02:54:51;;;;;;;22.00;4.75;;;;;;;;;;4998189;28;20353;-57
2022/01/19 02:57:20;;;;;;;18.85;3.85;;;;;;;;;;5000310;28;20030;-56
2022/01/19 03:10:30;;;;;;;20.17;4.28;;;;;;;;;;4994705;28;20091;-57
2022/01/19 03:12:55;;;;;;;19.40;4.47;;;;;;;;;;5000254;28;20065;-57
2022/01/19 03:15:21;;;;;;;26.95;5.40;;;;;;;;;;5003069;28;20038;-56
2022/01/19 03:17:47;;;;;;;30.83;3.70;;;;;;;;;;5005123;28;20034;-56
2022/01/19 03:20:12;;;;;;;22.15;5.22;;;;;;;;;;4998553;28;20198;-57
2022/01/19 03:23:23;;;;;;;25.58;4.53;;;;;;;;;;4999385;28;20022;-57
2022/01/19 03:25:24;;;;;;;16.05;3.97;;;;;;;;;;4982802;28;20064;-57
2022/01/19 03:27:50;;;;;;;15.80;3.45;;;;;;;;;;4967600;28;20041;-57
2022/01/19 03:30:17;;;;;;;16.63;2.70;;;;;;;;;;4980660;28;20033;-58
2022/01/19 03:32:42;;;;;;;13.30;3.28;;;;;;;;;;4999627;28;20416;-57
2022/01/19 03:35:10;;;;;;;23.95;3.83;;;;;;;;;;4998105;28;20033;-57
2022/01/19 03:37:35;;;;;;;21.25;3.45;;;;;;;;;;4999127;28;20433;-57
2022/01/19 03:40:03;;;;;;;17.73;3.08;;;;;;;;;;4996894;28;20049;-57
2022/01/19 03:42:28;;;;;;;22.88;3.20;;;;;;;;;;5003050;28;20527;-57
2022/01/19 03:44:54;;;;;;;17.85;2.80;;;;;;;;;;4999491;28;20041;-57
2022/01/19 03:47:19;;;;;;;21.00;3.78;;;;;;;;;;4997800;28;20052;-57
2022/01/19 03:49:45;;;;;;;20.27;3.03;;;;;;;;;;5003923;28;20171;-57
2022/01/19 03:52:10;;;;;;;14.13;3.45;;;;;;;;;;4984632;28;20041;-57
2022/01/19 03:54:38;;;;;;;23.35;3.05;;;;;;;;;;5005129;28;20083;-58
2022/01/19 03:57:04;;;;;;;11.60;3.42;;;;;;;;;;5003978;28;20569;-57
2022/01/19 03:59:30;;;;;;;17.58;3.88;;;;;;;;;;5005157;28;20527;-57
2022/01/19 04:01:57;;;;;;;9.75;3.13;;;;;;;;;;5002357;28;20496;-56
2022/01/19 04:05:02;;;;;;;16.83;3.42;;;;;;;;;;5002348;28;20452;-57
2022/01/19 04:07:15;;;;;;;22.48;3.83;;;;;;;;;;5000000;28;20431;-57
2022/01/19 04:09:45;;;;;;;13.43;2.63;;;;;;;;;;5002416;28;20038;-56
2022/01/19 04:12:15;;;;;;;10.80;2.70;;;;;;;;;;5004611;28;20084;-57
2022/01/19 04:14:41;;;;;;;23.52;4.38;;;;;;;;;;5005520;28;20527;-56
2022/01/19 04:17:09;;;;;;;13.93;3.80;;;;;;;;;;5003654;28;20045;-56
2022/01/19 04:22:10;;;;;;;27.73;3.40;;;;;;;;;;5004809;28;20412;-57
2022/01/19 04:24:37;;;;;;;47.78;8.23;;;;;;;;;;5006111;28;20500;-57
2022/01/19 04:30:08;;;;;;;27.25;3.45;;;;;;;;;;5003519;28;20048;-57
2022/01/19 04:32:47;;;;;;;23.58;2.95;;;;;;;;;;5002233;28;20026;-57
2022/01/19 04:35:17;;;;;;;23.33;2.88;;;;;;;;;;4982819;28;20492;-57
2022/01/19 05:05:04;;;;;;;14.82;1.77;;;;;;;;;;4988622;28;20464;-58
2022/01/19 05:07:43;;;;;;;14.60;1.92;;;;;;;;;;5002114;28;20029;-57
2022/01/19 05:15:37;;;;;;;19.67;2.20;;;;;;;;;;5003757;28;20516;-56
2022/01/19 05:18:04;;;;;;;16.17;1.80;;;;;;;;;;5002552;28;20030;-57
2022/01/19 05:20:29;;;;;;;17.38;2.75;;;;;;;;;;5000561;28;20113;-57
2022/01/19 05:22:55;;;;;;;11.43;1.40;;;;;;;;;;5000840;28;20464;-56
2022/01/19 05:25:21;;;;;;;7.85;1.80;;;;;;;;;;5005060;28;20044;-57
2022/01/19 05:27:46;;;;;;;16.35;2.30;;;;;;;;;;4984289;28;20289;-57
2022/01/19 05:30:13;;;;;;;15.05;1.67;;;;;;;;;;5001313;28;20038;-57
2022/01/19 05:32:38;;;;;;;9.13;1.33;;;;;;;;;;5005431;28;20025;-57
2022/01/19 05:35:04;;;;;;;12.85;1.95;;;;;;;;;;5002109;28;20064;-57
2022/01/19 05:37:36;;;;;;;26.67;2.35;;;;;;;;;;5000031;28;20416;-56
2022/01/19 05:40:06;;;;;;;13.07;1.58;;;;;;;;;;5000070;28;20322;-55
2022/01/19 05:42:31;;;;;;;25.70;2.00;;;;;;;;;;5001896;28;20485;-57
2022/01/19 05:44:57;;;;;;;12.05;1.15;;;;;;;;;;5002443;28;20103;-57
2022/01/19 05:47:22;;;;;;;12.35;1.60;;;;;;;;;;5001061;28;20026;-57
2022/01/19 05:49:48;;;;;;;5.40;1.50;;;;;;;;;;5001704;28;20129;-54
2022/01/19 05:52:13;;;;;;;17.40;1.73;;;;;;;;;;5004297;28;20036;-57
2022/01/19 05:54:39;;;;;;;6.03;1.13;;;;;;;;;;5001825;28;20484;-57
2022/01/19 05:57:05;;;;;;;17.40;2.15;;;;;;;;;;5003331;28;20030;-57
2022/01/19 05:59:30;;;;;;;21.65;2.33;;;;;;;;;;4982459;28;20360;-57
2022/01/19 06:01:56;;;;;;;13.90;1.85;;;;;;;;;;5005210;28;20029;-57
2022/01/19 06:04:22;;;;;;;22.48;1.95;;;;;;;;;;5004394;28;20273;-57
2022/01/19 06:06:50;;;;;;;19.55;1.38;;;;;;;;;;5000965;28;20120;-57
2022/01/19 06:09:33;;;;;;;13.05;1.70;;;;;;;;;;4998886;28;20061;-57
2022/01/19 06:12:05;;;;;;;15.30;1.42;;;;;;;;;;5001721;28;20073;-56
2022/01/19 06:14:32;;;;;;;7.65;2.60;;;;;;;;;;4999513;28;20033;-57
2022/01/19 06:16:58;;;;;;;17.50;1.40;;;;;;;;;;4997867;28;20489;-57
2022/01/19 06:19:23;;;;;;;12.30;1.38;;;;;;;;;;4995852;28;20030;-56
2022/01/19 06:21:49;;;;;;;25.63;2.92;;;;;;;;;;5003459;28;20033;-57
2022/01/19 06:24:14;;;;;;;24.33;1.90;;;;;;;;;;5000891;28;20072;-58
2022/01/19 06:26:40;;;;;;;15.88;2.13;;;;;;;;;;5002822;28;20045;-57
2022/01/19 06:29:05;;;;;;;9.60;1.55;;;;;;;;;;5002897;28;20528;-58
2022/01/19 06:31:31;;;;;;;9.38;1.83;;;;;;;;;;5004487;28;20026;-57
2022/01/19 06:33:57;;;;;;;15.93;2.00;;;;;;;;;;5000146;28;20588;-57
2022/01/19 06:36:23;;;;;;;26.40;2.47;;;;;;;;;;5002787;28;20033;-57
2022/01/19 06:38:48;;;;;;;31.25;2.90;;;;;;;;;;5000387;28;20034;-57
2022/01/19 06:41:14;;;;;;;21.75;2.78;;;;;;;;;;5001984;28;20484;-57
2022/01/19 06:43:39;;;;;;;20.13;1.80;;;;;;;;;;5001379;28;20068;-57
2022/01/19 06:46:05;;;;;;;14.85;1.65;;;;;;;;;;4999547;28;20052;-58
2022/01/19 06:48:31;;;;;;;24.30;1.60;;;;;;;;;;5002980;28;20034;-57
2022/01/19 06:50:57;;;;;;;11.27;1.00;;;;;;;;;;5002091;28;20046;-58
2022/01/19 06:53:22;;;;;;;12.35;0.98;;;;;;;;;;4998147;28;20089;-57
2022/01/19 06:55:48;;;;;;;19.10;0.80;;;;;;;;;;4999117;28;20034;-58
2022/01/19 06:58:13;;;;;;;13.57;0.90;;;;;;;;;;4998094;28;20126;-58
2022/01/19 07:00:39;;;;;;;16.98;0.75;;;;;;;;;;4998759;28;20030;-57
2022/01/19 07:03:05;;;;;;;21.05;1.20;;;;;;;;;;4998072;28;20060;-58
2022/01/19 07:05:30;;;;;;;20.60;1.40;;;;;;;;;;4993329;28;20057;-56
2022/01/19 07:07:57;;;;;;;20.73;1.23;;;;;;;;;;4998542;28;20041;-57
2022/01/19 07:10:23;;;;;;;18.40;1.50;;;;;;;;;;4997663;28;20044;-58
2022/01/19 07:12:48;;;;;;;15.63;1.13;;;;;;;;;;5003296;28;20033;-58
2022/01/19 07:15:14;;;;;;;12.13;0.93;;;;;;;;;;5002813;28;20529;-58
2022/01/19 07:17:40;;;;;;;14.48;1.27;;;;;;;;;;5000660;28;20025;-52
2022/01/19 07:20:06;;;;;;;28.90;1.77;;;;;;;;;;4994242;28;20068;-58
2022/01/19 07:22:32;;;;;;;18.30;0.80;;;;;;;;;;5002335;28;20057;-57
2022/01/19 07:24:59;;;;;;;28.08;1.33;;;;;;;;;;4997410;28;20072;-58
2022/01/19 07:27:24;;;;;;;15.75;1.13;;;;;;;;;;4996504;28;20048;-58
2022/01/19 07:29:50;;;;;;;11.77;1.20;;;;;;;;;;4999498;28;20037;-57
2022/01/19 07:32:15;;;;;;;23.42;1.10;;;;;;;;;;5004509;28;20504;-58
2022/01/19 07:34:41;;;;;;;25.58;1.65;;;;;;;;;;4998439;28;20038;-58
2022/01/19 07:37:07;;;;;;;14.15;0.95;;;;;;;;;;5002648;28;20433;-57
2022/01/19 07:39:33;;;;;;;23.35;1.85;;;;;;;;;;4995015;28;20061;-58
2022/01/19 07:41:59;;;;;;;18.05;1.33;;;;;;;;;;4998322;28;20505;-58
2022/01/19 07:44:24;;;;;;;10.85;0.63;;;;;;;;;;4998572;28;20449;-57
2022/01/19 07:46:51;;;;;;;18.02;2.03;;;;;;;;;;4999219;28;20476;-58
2022/01/19 07:49:17;;;;;;;11.70;1.58;;;;;;;;;;5001338;28;20034;-57
2022/01/19 07:51:43;;;;;;;17.00;1.67;;;;;;;;;;4983289;28;20026;-58
2022/01/19 07:54:09;;;;;;;27.23;1.77;;;;;;;;;;4997664;28;20034;-57
2022/01/19 07:56:34;;;;;;;12.15;1.25;;;;;;;;;;4999211;28;20034;-58
2022/01/19 07:59:00;;;;;;;33.65;2.33;;;;;;;;;;5000166;28;20420;-57
2022/01/19 08:01:30;;;;;;;18.20;1.52;;;;;;;;;;4981146;28;20022;-57
2022/01/19 08:03:56;;;;;;;22.08;1.75;;;;;;;;;;4999562;28;20065;-57
2022/01/19 08:06:21;;;;;;;24.40;2.97;;;;;;;;;;4981545;28;20074;-57
2022/01/19 08:08:47;;;;;;;23.92;2.70;;;;;;;;;;4998249;28;20445;-57
2022/01/19 08:11:12;;;;;;;8.25;1.75;;;;;;;;;;4992759;28;20046;-57
2022/01/19 08:13:38;;;;;;;25.98;2.47;;;;;;;;;;5001796;28;20133;-57
2022/01/19 08:16:04;;;;;;;20.05;1.50;;;;;;;;;;4999338;28;20030;-57
2022/01/19 08:18:29;;;;;;;32.70;1.85;;;;;;;;;;4999546;28;20038;-58
2022/01/19 08:20:55;;;;;;;23.00;1.83;;;;;;;;;;5000674;28;20402;-58
2022/01/19 08:23:20;;;;;;;24.95;1.58;;;;;;;;;;5000512;28;20053;-59
2022/01/19 08:25:46;;;;;;;18.98;1.73;;;;;;;;;;5002083;28;20596;-59
2022/01/19 08:28:12;;;;;;;20.00;1.33;;;;;;;;;;5001099;28;20045;-59
2022/01/19 08:30:38;;;;;;;16.83;1.20;;;;;;;;;;4998341;28;20073;-58
2022/01/19 08:33:04;;;;;;;15.18;1.10;;;;;;;;;;4997308;28;20062;-58
2022/01/19 08:35:29;;;;;;;24.65;1.90;;;;;;;;;;4997604;28;20133;-58
2022/01/19 08:37:55;;;;;;;14.30;1.95;;;;;;;;;;5002920;28;20103;-59
2022/01/19 08:40:26;;;;;;;28.65;2.33;;;;;;;;;;5004563;28;20092;-58
2022/01/19 08:42:52;;;;;;;19.90;1.73;;;;;;;;;;4990070;28;20483;-58
2022/01/19 08:45:18;;;;;;;15.63;1.90;;;;;;;;;;5003092;28;20366;-59
2022/01/19 08:47:43;;;;;;;23.27;1.70;;;;;;;;;;5002791;28;20099;-58
2022/01/19 08:50:12;;;;;;;14.77;1.48;;;;;;;;;;4999834;28;20476;-58
2022/01/19 08:52:38;;;;;;;15.05;2.28;;;;;;;;;;5000648;28;20034;-58
2022/01/19 08:55:04;;;;;;;18.30;1.45;;;;;;;;;;4996207;28;20508;-58
2022/01/19 08:57:29;;;;;;;21.15;1.77;;;;;;;;;;4986168;28;20042;-58
2022/01/19 08:59:55;;;;;;;25.45;1.83;;;;;;;;;;4999417;28;20085;-58
2022/01/19 09:02:20;;;;;;;11.93;1.35;;;;;;;;;;5002939;28;20859;-59
2022/01/19 09:04:46;;;;;;;14.65;1.30;;;;;;;;;;4997138;28;20069;-58
2022/01/19 09:07:12;;;;;;;36.63;2.08;;;;;;;;;;5002674;28;20026;-58
2022/01/19 09:09:38;;;;;;;19.85;1.58;;;;;;;;;;5000873;28;20374;-57
2022/01/19 09:12:04;;;;;;;30.80;3.17;;;;;;;;;;5002345;28;20049;-58
2022/01/19 09:14:31;;;;;;;20.33;2.00;;;;;;;;;;5001498;28;20032;-58
2022/01/19 09:16:57;;;;;;;24.92;1.30;;;;;;;;;;4999215;28;20045;-58
2022/01/19 09:19:23;;;;;;;21.80;1.90;;;;;;;;;;5000791;28;20417;-58
2022/01/19 09:21:50;;;;;;;18.80;1.75;;;;;;;;;;5003861;28;20021;-58
2022/01/19 09:24:17;;;;;;;21.92;2.20;;;;;;;;;;4999190;28;20401;-57
2022/01/19 09:26:43;;;;;;;28.38;2.38;;;;;;;;;;5001459;28;20365;-57
2022/01/19 09:29:09;;;;;;;12.85;1.73;;;;;;;;;;5000830;28;20427;-58
2022/01/19 09:31:35;;;;;;;22.23;1.92;;;;;;;;;;5001593;28;20022;-57
2022/01/19 09:34:14;;;;;;;26.25;2.03;;;;;;;;;;5001792;28;20749;-57
2022/01/19 09:36:46;;;;;;;28.38;1.65;;;;;;;;;;5001095;28;20080;-57
2022/01/19 09:39:21;;;;;;;14.85;1.40;;;;;;;;;;5001256;28;20029;-57
2022/01/19 09:41:48;;;;;;;21.40;1.92;;;;;;;;;;5004425;28;20075;-58
2022/01/19 09:44:15;;;;;;;32.85;2.92;;;;;;;;;;5000315;28;20030;-57
2022/01/19 09:46:41;;;;;;;26.90;1.77;;;;;;;;;;5001688;28;20669;-58
2022/01/19 09:49:06;;;;;;;21.88;2.10;;;;;;;;;;4999660;28;20057;-58
2022/01/19 09:51:32;;;;;;;25.48;2.47;;;;;;;;;;5001699;28;20122;-58
2022/01/19 09:53:58;;;;;;;42.60;5.70;;;;;;;;;;5000728;28;20381;-57
2022/01/19 09:56:23;;;;;;;39.95;6.13;;;;;;;;;;5000011;28;20389;-58
2022/01/19 09:58:49;;;;;;;21.30;3.10;;;;;;;;;;4998058;28;20063;-58
2022/01/19 10:01:19;;;;;;;16.75;2.65;;;;;;;;;;5001452;28;20058;-58
2022/01/19 10:03:46;;;;;;;18.45;2.22;;;;;;;;;;5002202;28;20021;-58
2022/01/19 10:06:16;;;;;;;24.35;2.67;;;;;;;;;;5002699;28;20057;-58
2022/01/19 10:08:44;;;;;;;38.20;2.15;;;;;;;;;;4997234;28;20109;-58
2022/01/19 10:11:12;;;;;;;16.08;1.75;;;;;;;;;;4999461;28;20112;-58
2022/01/19 10:19:22;;;;;;;16.63;1.27;;;;;;;;;;5001893;28;20410;-57
2022/01/19 10:22:02;;;;;;;22.25;1.50;;;;;;;;;;5003554;28;20029;-57
2022/01/19 10:24:55;;;;;;;33.10;3.33;;;;;;;;;;4997253;28;20436;-58
2022/01/19 10:27:40;;;;;;;15.77;1.98;;;;;;;;;;4986069;28;20452;-57
2022/01/19 10:30:05;;;;;;;18.05;1.73;;;;;;;;;;4998164;28;20036;-57
2022/01/19 10:32:41;;;;;;;26.45;2.92;;;;;;;;;;4996776;28;20034;-57
2022/01/19 10:35:36;;;;;;;30.02;2.58;;;;;;;;;;4999773;28;20030;-57
2022/01/19 10:38:34;;;;;;;15.98;2.30;;;;;;;;;;4997682;28;20034;-57
2022/01/19 10:41:07;;;;;;;15.75;1.95;;;;;;;;;;4994430;28;20038;-57
2022/01/19 10:43:44;;;;;;;32.75;2.17;;;;;;;;;;4996720;28;20034;-58
2022/01/19 10:46:15;;;;;;;15.88;1.52;;;;;;;;;;4998184;28;20041;-57
2022/01/19 10:48:42;;;;;;;10.43;0.83;;;;;;;;;;4996729;28;20104;-58
2022/01/19 10:51:12;;;;;;;18.27;2.22;;;;;;;;;;5000208;28;20034;-57
2022/01/19 10:53:41;;;;;;;25.10;2.25;;;;;;;;;;4998505;28;20048;-57
2022/01/19 10:56:21;;;;;;;16.42;2.22;;;;;;;;;;4999149;28;20474;-58
2022/01/19 10:58:58;;;;;;;17.25;1.40;;;;;;;;;;4977140;28;20045;-58
2022/01/19 11:01:40;;;;;;;19.20;2.40;;;;;;;;;;4994522;28;20018;-58
2022/01/19 11:04:23;;;;;;;24.75;2.30;;;;;;;;;;4997313;28;20065;-57
2022/01/19 11:06:54;;;;;;;15.82;2.30;;;;;;;;;;4997317;28;20033;-57
2022/01/19 11:09:24;;;;;;;25.67;2.30;;;;;;;;;;4994963;28;20030;-57
2022/01/19 11:11:52;;;;;;;22.45;2.47;;;;;;;;;;4998472;28;20060;-57
2022/01/19 11:14:17;;;;;;;26.33;2.17;;;;;;;;;;4995387;28;20040;-57
2022/01/19 11:16:43;;;;;;;20.50;2.22;;;;;;;;;;4978029;28;20029;-57
2022/01/19 11:19:10;;;;;;;22.23;2.63;;;;;;;;;;4994522;28;20045;-58
2022/01/19 11:21:46;;;;;;;15.50;1.90;;;;;;;;;;4997929;28;20057;-57
2022/01/19 11:24:32;;;;;;;18.10;1.73;;;;;;;;;;4990876;28;20173;-57
2022/01/19 11:26:59;;;;;;;23.95;1.92;;;;;;;;;;4998689;28;20030;-58
2022/01/19 11:29:25;;;;;;;19.63;2.03;;;;;;;;;;5001653;28;20040;-57
2022/01/19 11:31:53;;;;;;;20.63;2.25;;;;;;;;;;5003200;28;20164;-58
2022/01/19 11:34:37;;;;;;;18.27;1.77;;;;;;;;;;4997320;28;20026;-58
2022/01/19 11:37:03;;;;;;;21.67;2.28;;;;;;;;;;4998815;28;20319;-57
2022/01/19 11:39:30;;;;;;;14.10;2.22;;;;;;;;;;4995489;28;20734;-58
2022/01/19 11:42:03;;;;;;;14.30;1.55;;;;;;;;;;4999447;28;20113;-58
2022/01/19 11:44:28;;;;;;;19.52;3.92;;;;;;;;;;4999049;28;20037;-58
2022/01/19 11:46:59;;;;;;;15.13;1.45;;;;;;;;;;5002818;28;20040;-58
2022/01/19 11:49:51;;;;;;;25.05;2.38;;;;;;;;;;4997207;28;20037;-58
2022/01/19 11:52:19;;;;;;;15.73;2.22;;;;;;;;;;4995481;28;20030;-57
2022/01/19 11:54:46;;;;;;;20.85;2.47;;;;;;;;;;4997708;28;20397;-57
2022/01/19 11:57:18;;;;;;;16.27;2.22;;;;;;;;;;4996334;28;20041;-57
2022/01/19 11:59:46;;;;;;;19.98;1.77;;;;;;;;;;4998628;28;20026;-57
2022/01/19 12:02:21;;;;;;;12.70;1.50;;;;;;;;;;4998432;28;20050;-57
2022/01/19 12:05:10;;;;;;;24.08;2.72;;;;;;;;;;5000927;28;22611;-57
2022/01/19 12:07:38;;;;;;;17.52;1.50;;;;;;;;;;4970776;28;20439;-57
2022/01/19 12:10:09;;;;;;;17.67;1.88;;;;;;;;;;4993869;28;20084;-57
2022/01/19 12:12:43;;;;;;;20.77;2.70;;;;;;;;;;5000475;28;20028;-57
2022/01/19 12:15:49;;;;;;;25.52;2.35;;;;;;;;;;4997381;28;20117;-57
2022/01/19 12:18:49;;;;;;;19.33;1.90;;;;;;;;;;5001752;28;20026;-57
2022/01/19 12:21:36;;;;;;;22.77;1.80;;;;;;;;;;4969001;28;20042;-57
2022/01/19 12:24:21;;;;;;;16.42;2.17;;;;;;;;;;4997756;28;20021;-57
2022/01/19 12:26:56;;;;;;;12.93;1.00;;;;;;;;;;4998200;28;20644;-55
2022/01/19 12:29:42;;;;;;;27.95;2.05;;;;;;;;;;4996028;28;20030;-56
2022/01/19 12:32:08;;;;;;;12.50;1.95;;;;;;;;;;4969273;28;20049;-56
2022/01/19 12:34:52;;;;;;;13.82;1.60;;;;;;;;;;5001521;28;20116;-56
2022/01/19 12:37:26;;;;;;;10.98;1.90;;;;;;;;;;5001244;28;20420;-55
2022/01/19 12:39:53;;;;;;;13.38;2.15;;;;;;;;;;5001581;28;20032;-56
2022/01/19 12:42:20;;;;;;;10.95;1.02;;;;;;;;;;5001425;28;20032;-56
2022/01/19 12:44:51;;;;;;;13.88;1.25;;;;;;;;;;5002807;28;20030;-56
2022/01/19 12:47:28;;;;;;;18.50;1.67;;;;;;;;;;4998045;28;20037;-55
2022/01/19 12:50:08;;;;;;;16.42;1.90;;;;;;;;;;4999717;28;20100;-56
2022/01/19 12:52:40;;;;;;;14.18;1.50;;;;;;;;;;5001030;28;21072;-56
2022/01/19 12:55:13;;;;;;;10.98;1.10;;;;;;;;;;4997637;28;20517;-56
2022/01/19 12:57:38;;;;;;;13.00;0.90;;;;;;;;;;4996315;28;20669;-57
2022/01/19 13:00:08;;;;;;;14.52;1.17;;;;;;;;;;4999531;28;20045;-57
2022/01/19 13:02:34;;;;;;;13.68;1.15;;;;;;;;;;5000410;28;20044;-57
2022/01/19 13:05:10;;;;;;;16.63;1.27;;;;;;;;;;5000272;28;20021;-56
2022/01/19 13:07:44;;;;;;;13.77;1.23;;;;;;;;;;5003527;28;20108;-56
2022/01/19 13:12:54;;;;;;;9.63;1.20;;;;;;;;;;5003382;28;20272;-56
2022/01/19 13:15:20;;;;;;;5.40;1.08;;;;;;;;;;5002125;28;20029;-57
2022/01/19 13:17:51;;;;;;;11.52;1.70;;;;;;;;;;5002327;28;20037;-57
2022/01/19 13:20:19;;;;;;;7.43;1.05;;;;;;;;;;5001195;28;20366;-56
2022/01/19 13:22:50;;;;;;;20.73;2.28;;;;;;;;;;4999369;28;20026;-56
2022/01/19 13:25:30;;;;;;;14.70;2.00;;;;;;;;;;5002515;28;20033;-56
2022/01/19 13:27:58;;;;;;;10.40;1.63;;;;;;;;;;5002440;28;20034;-56
2022/01/19 13:30:26;;;;;;;23.65;2.22;;;;;;;;;;5002779;28;20111;-57
2022/01/19 13:32:52;;;;;;;19.70;3.25;;;;;;;;;;5004757;28;20599;-56
2022/01/19 13:35:19;;;;;;;12.10;1.70;;;;;;;;;;5001095;28;20128;-57
2022/01/19 13:37:54;;;;;;;9.38;1.00;;;;;;;;;;5006734;28;20041;-56
2022/01/19 13:40:26;;;;;;;16.08;1.35;;;;;;;;;;5001079;28;20107;-56
2022/01/19 13:43:11;;;;;;;12.57;1.38;;;;;;;;;;5000227;28;20040;-57
2022/01/19 13:50:45;;;;;;;18.55;2.05;;;;;;;;;;5002958;28;20131;-56
2022/01/19 13:53:11;;;;;;;14.05;1.80;;;;;;;;;;5000028;28;20113;-56
2022/01/19 13:55:37;;;;;;;11.82;1.58;;;;;;;;;;5000931;28;20037;-56
2022/01/19 13:58:12;;;;;;;18.23;2.10;;;;;;;;;;5002226;28;20060;-55
2022/01/19 14:00:49;;;;;;;10.63;1.23;;;;;;;;;;5007123;28;20030;-55
2022/01/19 14:03:15;;;;;;;15.10;2.65;;;;;;;;;;5001235;28;20033;-55
2022/01/19 14:05:49;;;;;;;12.55;1.83;;;;;;;;;;5001419;28;20034;-55
2022/01/19 14:08:28;;;;;;;17.02;2.38;;;;;;;;;;4997376;28;20022;-55
2022/01/19 14:10:54;;;;;;;13.32;2.40;;;;;;;;;;4999591;28;20125;-55
2022/01/19 14:13:26;;;;;;;15.50;3.17;;;;;;;;;;5003999;28;20875;-55
2022/01/19 14:15:52;;;;;;;16.23;2.72;;;;;;;;;;5000345;28;20038;-55
2022/01/19 14:18:18;;;;;;;14.98;3.33;;;;;;;;;;4999542;28;21438;-55
2022/01/19 14:20:43;;;;;;;19.88;2.80;;;;;;;;;;5001214;28;20033;-55
2022/01/19 14:23:13;;;;;;;9.43;1.05;;;;;;;;;;4999499;28;20374;-56
2022/01/19 14:25:39;;;;;;;16.75;2.00;;;;;;;;;;4998760;28;20022;-56
2022/01/19 14:28:14;;;;;;;21.35;2.45;;;;;;;;;;5001590;28;20068;-56
2022/01/19 14:30:41;;;;;;;26.67;4.47;;;;;;;;;;4999095;28;20477;-59
2022/01/19 14:33:14;;;;;;;18.05;2.88;;;;;;;;;;4994950;28;20803;-58
2022/01/19 14:35:42;;;;;;;31.80;3.47;;;;;;;;;;4998179;28;20516;-58
2022/01/19 14:38:44;;;;;;;32.45;2.42;;;;;;;;;;5000133;28;20038;-60
2022/01/19 14:41:31;;;;;;;;;;;;;;;;;;4894923;29;20032;-60
2022/01/19 14:44:19;;;;;;;18.58;2.92;;;;;;;;;;4992390;28;19921;-59
2022/01/19 14:47:06;;;;;;;19.88;2.28;;;;;;;;;;4999445;28;20528;-59
2022/01/19 14:49:34;;;;;;;20.40;2.17;;;;;;;;;;4986125;28;20383;-60
2022/01/19 14:52:00;;;;;;;18.20;2.03;;;;;;;;;;4999609;28;20046;-59
2022/01/19 14:54:25;;;;;;;16.50;2.05;;;;;;;;;;4999122;28;20558;-60
2022/01/19 14:56:51;;;;;;;14.35;1.35;;;;;;;;;;5000106;28;20127;-60
2022/01/19 14:59:22;;;;;;;20.02;2.30;;;;;;;;;;5003146;28;20048;-60
2022/01/19 15:01:55;;;;;;;13.25;1.70;;;;;;;;;;5005010;28;20523;-60
2022/01/19 15:04:21;;;;;;;11.82;1.83;;;;;;;;;;4998185;28;20184;-59
2022/01/19 15:06:48;;;;;;;24.35;2.40;;;;;;;;;;5000693;28;20030;-59
2022/01/19 15:09:14;;;;;;;17.98;2.67;;;;;;;;;;5001003;28;20045;-60
2022/01/19 15:11:42;;;;;;;10.02;2.15;;;;;;;;;;5000769;28;20188;-59
2022/01/19 15:14:09;;;;;;;21.55;2.08;;;;;;;;;;5001930;28;20615;-59
2022/01/19 15:16:35;;;;;;;16.52;1.85;;;;;;;;;;5002438;28;20029;-59
2022/01/19 15:19:00;;;;;;;5.88;0.82;;;;;;;;;;5000403;28;20029;-59
2022/01/19 15:21:26;;;;;;;12.80;2.25;;;;;;;;;;4999721;28;20033;-60
2022/01/19 15:23:53;;;;;;;12.57;1.65;;;;;;;;;;5001587;28;20037;-59
2022/01/19 15:26:19;;;;;;;12.63;1.83;;;;;;;;;;5001084;28;20044;-59
2022/01/19 15:28:49;;;;;;;20.33;3.08;;;;;;;;;;5000866;28;20029;-60
2022/01/19 15:31:14;;;;;;;15.15;2.33;;;;;;;;;;4999573;28;20465;-60
2022/01/19 15:33:40;;;;;;;13.57;2.80;;;;;;;;;;5000172;28;20049;-60
2022/01/19 15:36:07;;;;;;;16.83;2.30;;;;;;;;;;4981912;28;20096;-59
2022/01/19 15:38:38;;;;;;;19.45;3.03;;;;;;;;;;4998947;28;20165;-59
2022/01/19 15:41:04;;;;;;;13.95;2.10;;;;;;;;;;4999474;28;20067;-60
2022/01/19 15:43:30;;;;;;;13.80;2.55;;;;;;;;;;4996629;28;20063;-60
2022/01/19 15:45:55;;;;;;;12.77;2.05;;;;;;;;;;5002563;28;20458;-59
2022/01/19 15:48:22;;;;;;;21.75;3.13;;;;;;;;;;5001893;28;20606;-59
2022/01/19 15:50:50;;;;;;;22.40;2.65;;;;;;;;;;5003721;28;20033;-59
2022/01/19 15:53:17;;;;;;;17.52;2.25;;;;;;;;;;5004467;28;20045;-60
2022/01/19 15:55:43;;;;;;;14.25;2.20;;;;;;;;;;4972974;28;20034;-59
2022/01/19 15:58:09;;;;;;;7.15;1.80;;;;;;;;;;5001238;28;20462;-59
2022/01/19 16:00:35;;;;;;;12.38;1.75;;;;;;;;;;4986218;28;20095;-59
2022/01/19 16:03:04;;;;;;;21.40;3.38;;;;;;;;;;5002426;28;20091;-59
2022/01/19 16:05:33;;;;;;;9.85;2.30;;;;;;;;;;5005102;28;20038;-59
2022/01/19 16:07:59;;;;;;;12.77;2.30;;;;;;;;;;4971857;28;20033;-59
2022/01/19 16:10:25;;;;;;;15.38;3.92;;;;;;;;;;5002432;28;20052;-59
2022/01/19 16:12:50;;;;;;;14.00;3.20;;;;;;;;;;5002142;28;20042;-60
2022/01/19 16:15:16;;;;;;;18.13;2.75;;;;;;;;;;5001570;28;20422;-59
2022/01/19 16:17:42;;;;;;;20.38;3.00;;;;;;;;;;5001405;28;20038;-60
2022/01/19 16:20:10;;;;;;;14.13;2.17;;;;;;;;;;5001844;28;20037;-60
2022/01/19 16:28:04;;;;;;;12.13;2.03;;;;;;;;;;5000353;28;20032;-59